Time;durP1;ratioP1;P1;durP2;ratioP2;P2;SDS_P1;SDS_P2;PMS_P1;PMS_P2;Temp;Humidity;BMP_temperature;BMP_pressure;BME280_temperature;BME280_humidity;BME280_pressure;Samples;Min_cycle;Max_cycle;Signal;HPM_P1;HPM_P2
2023/05/08 00:00:44;;;;;;;7.93;6.55;;;10.40;99.90;;;;;;5083295;28;20053;-75
2023/05/08 00:03:10;;;;;;;7.10;6.27;;;10.40;99.90;;;;;;5071951;28;20055;-75
2023/05/08 00:05:35;;;;;;;8.07;6.40;;;10.40;99.90;;;;;;5091172;28;20036;-75
2023/05/08 00:08:01;;;;;;;7.15;6.45;;;10.40;99.90;;;;;;5090806;28;20059;-75
2023/05/08 00:10:27;;;;;;;7.38;6.18;;;10.40;99.90;;;;;;5068772;28;20135;-75
2023/05/08 00:12:54;;;;;;;6.75;5.95;;;10.30;99.90;;;;;;5071296;28;20036;-75
2023/05/08 00:15:20;;;;;;;7.03;6.32;;;10.40;99.90;;;;;;5054382;28;20051;-75
2023/05/08 00:17:46;;;;;;;7.68;6.88;;;10.30;99.90;;;;;;5077402;28;20040;-75
2023/05/08 00:20:13;;;;;;;8.75;7.38;;;10.30;99.90;;;;;;5061093;28;20036;-75
2023/05/08 00:22:40;;;;;;;10.10;7.60;;;10.30;99.90;;;;;;5035659;28;20054;-75
2023/05/08 00:25:07;;;;;;;8.75;7.07;;;10.30;99.90;;;;;;5064864;28;20040;-75
2023/05/08 00:27:33;;;;;;;8.07;7.28;;;10.20;99.90;;;;;;5078139;28;20032;-75
2023/05/08 00:30:00;;;;;;;9.82;8.63;;;10.20;99.90;;;;;;5092879;28;20054;-75
2023/05/08 00:32:26;;;;;;;8.52;7.63;;;10.10;99.90;;;;;;5085917;28;20041;-75
2023/05/08 00:34:53;;;;;;;8.25;7.22;;;10.20;99.90;;;;;;5075522;28;20106;-75
2023/05/08 00:37:18;;;;;;;10.65;8.32;;;10.10;99.90;;;;;;5063573;28;20040;-75
2023/05/08 00:39:44;;;;;;;9.38;8.18;;;10.10;99.90;;;;;;5057066;28;20151;-75
2023/05/08 00:42:10;;;;;;;9.82;8.82;;;10.10;99.90;;;;;;5078662;28;20109;-75
2023/05/08 00:44:39;;;;;;;10.18;8.90;;;10.00;99.90;;;;;;5061321;28;20056;-75
2023/05/08 00:47:06;;;;;;;;;;;10.00;99.90;;;;;;5060045;28;20463;-75
2023/05/08 00:49:34;;;;;;;9.63;8.07;;;9.90;99.90;;;;;;5061535;28;19965;-75
2023/05/08 00:52:02;;;;;;;9.80;8.60;;;9.90;99.90;;;;;;5074967;28;20856;-75
2023/05/08 00:54:30;;;;;;;10.47;9.07;;;9.90;99.90;;;;;;5078360;28;20044;-75
2023/05/08 00:56:56;;;;;;;9.97;8.60;;;9.80;99.90;;;;;;5061734;28;20426;-75
2023/05/08 00:59:22;;;;;;;11.27;8.82;;;9.80;99.90;;;;;;5073157;28;20048;-75
2023/05/08 01:01:48;;;;;;;10.80;9.35;;;9.80;99.90;;;;;;5051734;28;20052;-75
2023/05/08 01:04:13;;;;;;;10.73;8.73;;;9.80;99.90;;;;;;5059052;28;20105;-75
2023/05/08 01:06:39;;;;;;;10.63;9.07;;;9.80;99.90;;;;;;5094635;28;20082;-75
2023/05/08 01:09:06;;;;;;;10.45;9.35;;;9.70;99.90;;;;;;5076256;28;20048;-75
2023/05/08 01:12:08;;;;;;;10.63;8.93;;;9.70;99.90;;;;;;5076565;28;20032;-75
2023/05/08 01:15:11;;;;;;;9.80;8.80;;;9.70;99.90;;;;;;5093252;28;20043;-75
2023/05/08 01:17:47;;;;;;;10.73;9.63;;;9.60;99.90;;;;;;5094847;28;20040;-75
2023/05/08 01:20:55;;;;;;;10.55;8.93;;;9.60;99.90;;;;;;5061111;28;20105;-75
2023/05/08 01:23:40;;;;;;;10.18;9.07;;;9.60;99.90;;;;;;5088868;28;20109;-75
2023/05/08 01:26:14;;;;;;;10.50;8.40;;;9.50;99.90;;;;;;5085451;28;20074;-75
2023/05/08 01:29:19;;;;;;;9.90;8.90;;;9.50;99.90;;;;;;5092964;28;20380;-75
2023/05/08 01:31:59;;;;;;;10.23;9.23;;;9.50;99.90;;;;;;5090602;28;20100;-75
2023/05/08 01:34:32;;;;;;;11.45;8.93;;;9.50;99.90;;;;;;5091074;28;20185;-75
2023/05/08 01:37:27;;;;;;;10.60;8.48;;;9.50;99.90;;;;;;5040115;28;20040;-75
2023/05/08 01:40:02;;;;;;;10.02;8.43;;;9.40;99.90;;;;;;5075783;28;20054;-75
2023/05/08 01:42:49;;;;;;;10.27;8.40;;;9.40;99.90;;;;;;5064942;28;20496;-75
2023/05/08 01:45:39;;;;;;;9.85;8.85;;;9.40;99.90;;;;;;5087303;28;20059;-75
2023/05/08 01:48:10;;;;;;;10.18;8.93;;;9.30;99.90;;;;;;5087291;28;20388;-75
2023/05/08 01:50:58;;;;;;;9.60;8.30;;;9.30;99.90;;;;;;5050423;28;20047;-75
2023/05/08 01:53:27;;;;;;;10.88;9.05;;;9.30;99.90;;;;;;5084857;28;20142;-75
2023/05/08 01:55:55;;;;;;;9.95;8.65;;;9.30;99.90;;;;;;5072378;28;20083;-75
2023/05/08 01:58:22;;;;;;;;;;;9.20;99.90;;;;;;5050936;28;20048;-75
2023/05/08 02:00:49;;;;;;;10.63;7.90;;;9.20;99.90;;;;;;5089623;28;19977;-75
2023/05/08 02:03:16;;;;;;;10.18;8.48;;;9.30;99.90;;;;;;5054352;28;20063;-75
2023/05/08 02:05:41;;;;;;;10.00;8.40;;;9.20;99.90;;;;;;5049608;28;20381;-75
2023/05/08 02:08:08;;;;;;;10.38;8.38;;;9.20;99.90;;;;;;5072114;28;20038;-76
2023/05/08 02:10:34;;;;;;;10.13;8.13;;;9.20;99.90;;;;;;5074828;28;20086;-75
2023/05/08 02:13:00;;;;;;;10.55;8.65;;;9.20;99.90;;;;;;5069430;28;20032;-75
2023/05/08 02:15:27;;;;;;;10.10;7.68;;;9.10;99.90;;;;;;5092688;28;20417;-75
2023/05/08 02:17:54;;;;;;;10.15;8.70;;;9.20;99.90;;;;;;5064761;28;20082;-75
2023/05/08 02:20:20;;;;;;;10.25;8.25;;;9.10;99.90;;;;;;5066429;28;20066;-75
2023/05/08 02:22:48;;;;;;;10.98;8.70;;;9.10;99.90;;;;;;5041541;28;20044;-75
2023/05/08 02:25:15;;;;;;;9.98;8.65;;;9.10;99.90;;;;;;5057938;28;20067;-75
2023/05/08 02:27:47;;;;;;;9.25;7.95;;;9.00;99.90;;;;;;5056189;28;20098;-75
2023/05/08 02:30:13;;;;;;;8.68;7.78;;;9.00;99.90;;;;;;5037046;28;20036;-75
2023/05/08 02:32:44;;;;;;;10.45;8.77;;;9.00;99.90;;;;;;5070113;28;20105;-75
2023/05/08 02:35:15;;;;;;;9.50;8.43;;;9.00;99.90;;;;;;5047537;28;20047;-75
2023/05/08 02:37:45;;;;;;;10.43;8.60;;;9.00;99.90;;;;;;5055402;28;20080;-75
2023/05/08 02:40:11;;;;;;;10.02;8.50;;;8.90;99.90;;;;;;5059012;28;20036;-75
2023/05/08 02:42:37;;;;;;;10.05;8.32;;;8.80;99.90;;;;;;5058864;28;20353;-75
2023/05/08 02:45:03;;;;;;;9.40;8.02;;;8.80;99.90;;;;;;5069178;28;20043;-75
2023/05/08 02:47:38;;;;;;;10.18;8.90;;;8.80;99.90;;;;;;5074947;28;20068;-75
2023/05/08 02:50:42;;;;;;;9.27;7.97;;;8.80;99.90;;;;;;5060159;28;20040;-74
2023/05/08 02:53:10;;;;;;;11.70;9.02;;;8.90;99.90;;;;;;5100274;27;20376;-75
2023/05/08 02:56:09;;;;;;;11.80;8.30;;;8.80;99.90;;;;;;5053172;28;20048;-75
2023/05/08 02:59:21;;;;;;;9.07;8.00;;;8.90;99.90;;;;;;5089623;28;20044;-75
2023/05/08 03:01:58;;;;;;;10.93;7.85;;;8.90;99.90;;;;;;5087076;28;20048;-75
2023/05/08 03:04:25;;;;;;;9.38;8.10;;;8.90;99.90;;;;;;5060334;28;20128;-75
2023/05/08 03:06:53;;;;;;;12.75;8.07;;;8.90;99.90;;;;;;5039945;28;20039;-75
2023/05/08 03:09:20;;;;;;;11.23;8.15;;;8.90;99.90;;;;;;5051586;28;20086;-75
2023/05/08 03:11:49;;;;;;;9.55;7.72;;;8.90;99.90;;;;;;5068965;28;20040;-75
2023/05/08 03:14:17;;;;;;;9.68;8.43;;;8.80;99.90;;;;;;5041630;28;20131;-75
2023/05/08 03:16:44;;;;;;;10.85;8.55;;;8.80;99.90;;;;;;5068561;28;20043;-75
2023/05/08 03:19:19;;;;;;;10.10;8.10;;;8.80;99.90;;;;;;5059114;28;20044;-75
2023/05/08 03:21:45;;;;;;;9.52;8.02;;;8.80;99.90;;;;;;5053113;28;20047;-75
2023/05/08 03:24:13;;;;;;;8.13;7.30;;;8.80;99.90;;;;;;5058906;28;20047;-76
2023/05/08 03:26:40;;;;;;;13.77;8.13;;;8.80;99.90;;;;;;5071159;28;20051;-75
2023/05/08 03:29:05;;;;;;;13.27;8.55;;;8.80;99.90;;;;;;5059367;28;20164;-75
2023/05/08 03:31:32;;;;;;;11.45;8.70;;;8.70;99.90;;;;;;5056055;28;20978;-75
2023/05/08 03:33:58;;;;;;;9.77;7.70;;;8.70;99.90;;;;;;5054662;28;20040;-75
2023/05/08 03:36:25;;;;;;;11.13;8.30;;;8.70;99.90;;;;;;5057277;28;20052;-75
2023/05/08 03:38:51;;;;;;;8.48;7.55;;;8.60;99.90;;;;;;5085730;28;20048;-75
2023/05/08 03:41:18;;;;;;;8.85;7.95;;;8.60;99.90;;;;;;5075344;28;20414;-75
2023/05/08 03:43:47;;;;;;;9.90;7.93;;;8.60;99.90;;;;;;5072705;28;20053;-75
2023/05/08 03:46:13;;;;;;;8.45;7.22;;;8.60;99.90;;;;;;5055558;28;20491;-75
2023/05/08 03:48:39;;;;;;;10.82;7.93;;;8.60;99.90;;;;;;5054291;28;20041;-75
2023/05/08 03:51:05;;;;;;;9.52;8.15;;;8.60;99.90;;;;;;5073325;28;20040;-75
2023/05/08 03:53:32;;;;;;;9.45;7.50;;;8.50;99.90;;;;;;5091680;28;20066;-75
2023/05/08 03:55:59;;;;;;;9.77;7.80;;;8.50;99.90;;;;;;5091634;28;20048;-75
2023/05/08 03:58:55;;;;;;;10.02;7.93;;;8.50;99.90;;;;;;5087956;28;20109;-75
2023/05/08 04:01:39;;;;;;;10.20;7.75;;;8.50;99.90;;;;;;5080859;28;20040;-75
2023/05/08 04:04:31;;;;;;;11.23;7.97;;;8.50;99.90;;;;;;5072009;28;20058;-75
2023/05/08 04:07:07;;;;;;;8.93;7.68;;;8.50;99.90;;;;;;5096004;28;20035;-74
2023/05/08 04:09:50;;;;;;;9.38;7.93;;;8.50;99.90;;;;;;5075817;28;20075;-76
2023/05/08 04:12:36;;;;;;;9.35;7.63;;;8.50;99.90;;;;;;5075415;28;20124;-75
2023/05/08 04:15:16;;;;;;;9.43;7.63;;;8.50;99.90;;;;;;5063705;28;20381;-74
2023/05/08 04:17:45;;;;;;;10.45;7.90;;;8.50;99.90;;;;;;5075000;28;20044;-75
2023/05/08 04:20:16;;;;;;;9.73;7.25;;;8.60;99.90;;;;;;5070398;28;20457;-74
2023/05/08 04:22:42;;;;;;;10.65;7.50;;;8.60;99.90;;;;;;5070328;28;20050;-74
2023/05/08 04:25:08;;;;;;;9.32;7.45;;;8.60;99.90;;;;;;5079058;28;20096;-74
2023/05/08 04:27:36;;;;;;;10.45;8.23;;;8.70;99.90;;;;;;5061153;28;20043;-74
2023/05/08 04:30:02;;;;;;;6.97;5.63;;;8.70;99.90;;;;;;5062119;28;20039;-74
2023/05/08 04:32:34;;;;;;;11.00;7.63;;;8.70;99.90;;;;;;5058840;28;20032;-75
2023/05/08 04:35:00;;;;;;;9.80;7.47;;;8.70;99.90;;;;;;5077146;28;20039;-75
2023/05/08 04:37:28;;;;;;;11.18;8.13;;;8.70;99.90;;;;;;5071619;28;20056;-74
2023/05/08 04:39:55;;;;;;;11.57;8.20;;;8.70;99.90;;;;;;5066929;28;20080;-75
2023/05/08 04:42:23;;;;;;;9.40;7.25;;;8.80;99.90;;;;;;5091065;28;20052;-75
2023/05/08 04:44:48;;;;;;;9.25;7.07;;;8.80;99.90;;;;;;5088653;28;20086;-75
2023/05/08 04:47:16;;;;;;;9.43;7.72;;;8.80;99.90;;;;;;5078476;28;20078;-76
2023/05/08 04:49:42;;;;;;;8.50;7.07;;;8.80;99.90;;;;;;5062015;28;20112;-75
2023/05/08 04:52:08;;;;;;;10.18;8.07;;;8.80;99.90;;;;;;5061813;28;20131;-76
2023/05/08 04:54:34;;;;;;;8.77;7.60;;;8.80;99.90;;;;;;5073617;28;20040;-76
2023/05/08 04:57:00;;;;;;;10.38;6.75;;;8.90;99.90;;;;;;5062398;28;20075;-75
2023/05/08 04:59:28;;;;;;;8.20;7.07;;;8.90;99.90;;;;;;5059865;28;20110;-74
2023/05/08 05:01:54;;;;;;;8.15;7.35;;;8.90;99.90;;;;;;5095288;28;20070;-75
2023/05/08 05:04:23;;;;;;;9.55;7.43;;;9.00;99.90;;;;;;5077846;28;20055;-74
2023/05/08 05:06:49;;;;;;;10.82;7.22;;;8.90;99.90;;;;;;5072861;28;20071;-75
2023/05/08 05:09:15;;;;;;;10.52;7.45;;;9.00;99.90;;;;;;5080473;28;20044;-75
2023/05/08 05:11:41;;;;;;;9.50;7.80;;;9.00;99.90;;;;;;5094385;28;20349;-75
2023/05/08 05:14:07;;;;;;;7.50;6.45;;;9.00;99.90;;;;;;5074195;28;20053;-75
2023/05/08 05:16:32;;;;;;;10.70;7.95;;;9.00;99.90;;;;;;5090314;28;20048;-75
2023/05/08 05:18:58;;;;;;;13.20;7.32;;;9.00;99.90;;;;;;5072958;28;20047;-75
2023/05/08 05:21:24;;;;;;;8.35;7.20;;;9.00;99.90;;;;;;5050709;28;20075;-75
2023/05/08 05:23:52;;;;;;;9.05;7.20;;;9.10;99.90;;;;;;5088933;28;20044;-75
2023/05/08 05:26:18;;;;;;;9.10;7.37;;;9.20;99.90;;;;;;5077745;28;20500;-75
2023/05/08 05:28:44;;;;;;;9.60;7.15;;;9.20;99.90;;;;;;5074492;28;20045;-75
2023/05/08 05:31:11;;;;;;;8.73;7.28;;;9.30;99.90;;;;;;5066986;28;20033;-75
2023/05/08 05:33:38;;;;;;;8.85;7.05;;;9.30;99.90;;;;;;5093139;28;20044;-75
2023/05/08 05:36:06;;;;;;;9.88;7.40;;;9.30;99.90;;;;;;5070717;28;20135;-75
2023/05/08 05:38:35;;;;;;;8.15;7.07;;;9.40;99.90;;;;;;5091042;28;20055;-75
2023/05/08 05:41:02;;;;;;;12.80;8.15;;;9.30;99.90;;;;;;5060772;28;20044;-75
2023/05/08 05:43:29;;;;;;;10.95;7.53;;;9.40;99.90;;;;;;5076646;28;20078;-75
2023/05/08 05:45:55;;;;;;;8.77;7.00;;;9.40;99.90;;;;;;5059633;28;20065;-75
2023/05/08 05:48:21;;;;;;;8.45;6.53;;;9.50;99.90;;;;;;5074909;28;20479;-75
2023/05/08 05:50:46;;;;;;;8.82;7.38;;;9.60;99.90;;;;;;5040148;28;20036;-75
2023/05/08 05:53:12;;;;;;;8.77;7.13;;;9.50;99.90;;;;;;5067786;28;20036;-75
2023/05/08 05:55:38;;;;;;;14.30;7.22;;;9.60;99.90;;;;;;5064529;28;20044;-75
2023/05/08 05:58:04;;;;;;;9.95;7.70;;;9.60;99.90;;;;;;5086339;28;20044;-75
2023/05/08 06:00:30;;;;;;;8.32;6.78;;;9.60;99.90;;;;;;5072104;28;20036;-75
2023/05/08 06:02:56;;;;;;;8.93;7.35;;;9.60;99.90;;;;;;5071799;28;20052;-75
2023/05/08 06:05:23;;;;;;;9.57;7.30;;;9.60;99.90;;;;;;5043245;28;20055;-75
2023/05/08 06:07:49;;;;;;;9.15;7.43;;;9.70;99.90;;;;;;5072677;28;22027;-74
2023/05/08 06:10:18;;;;;;;9.75;6.72;;;9.80;99.90;;;;;;5088156;28;21024;-75
2023/05/08 06:12:43;;;;;;;;;;;9.80;99.90;;;;;;5054494;28;20106;-75
2023/05/08 06:15:10;;;;;;;9.35;7.43;;;9.90;99.90;;;;;;5090811;28;20312;-75
2023/05/08 06:17:35;;;;;;;10.68;7.43;;;9.90;99.90;;;;;;5040002;28;20055;-75
2023/05/08 06:20:02;;;;;;;9.68;7.93;;;10.00;99.90;;;;;;5068006;28;20067;-75
2023/05/08 06:22:29;;;;;;;10.18;7.97;;;9.90;99.90;;;;;;5063914;28;20047;-75
2023/05/08 06:24:56;;;;;;;8.43;7.13;;;9.90;99.90;;;;;;5058104;28;20055;-75
2023/05/08 06:27:22;;;;;;;11.90;7.53;;;10.00;99.90;;;;;;5089351;28;20612;-75
2023/05/08 06:29:52;;;;;;;8.68;7.30;;;10.00;99.90;;;;;;5042077;28;20040;-75
2023/05/08 06:32:19;;;;;;;10.13;7.90;;;10.10;99.90;;;;;;5066596;28;20047;-76
2023/05/08 06:34:45;;;;;;;9.50;7.25;;;10.20;99.90;;;;;;5071591;28;20044;-76
2023/05/08 06:37:11;;;;;;;11.07;7.88;;;10.20;99.90;;;;;;5074830;28;20048;-75
2023/05/08 06:39:38;;;;;;;9.98;7.65;;;10.20;99.90;;;;;;5037599;28;20048;-76
2023/05/08 06:42:05;;;;;;;9.60;7.53;;;10.30;99.90;;;;;;5052720;28;20040;-75
2023/05/08 06:44:32;;;;;;;11.60;7.50;;;10.30;99.90;;;;;;5068172;28;20418;-76
2023/05/08 06:46:57;;;;;;;7.95;7.15;;;10.40;99.90;;;;;;5056441;28;20035;-76
2023/05/08 06:49:23;;;;;;;9.15;7.45;;;10.50;99.90;;;;;;5091232;28;20036;-76
2023/05/08 06:51:49;;;;;;;10.45;7.10;;;10.50;99.90;;;;;;5056292;28;20040;-75
2023/05/08 06:54:17;;;;;;;8.88;7.07;;;10.60;99.90;;;;;;5036272;28;20040;-75
2023/05/08 06:56:44;;;;;;;8.48;7.05;;;10.70;99.90;;;;;;5070990;28;20044;-75
2023/05/08 06:59:10;;;;;;;8.30;6.97;;;10.70;99.90;;;;;;5066928;28;20036;-76
2023/05/08 07:01:37;;;;;;;9.52;6.85;;;10.80;99.90;;;;;;5053271;28;20058;-75
2023/05/08 07:04:03;;;;;;;8.13;7.05;;;10.80;99.90;;;;;;5060038;28;20071;-75
2023/05/08 07:06:31;;;;;;;11.50;7.00;;;10.90;99.90;;;;;;5041860;28;20044;-76
2023/05/08 07:08:57;;;;;;;8.45;7.43;;;11.00;99.90;;;;;;5052132;28;20074;-76
2023/05/08 07:11:25;;;;;;;9.52;7.65;;;11.20;99.90;;;;;;5073242;28;20053;-75
2023/05/08 07:13:51;;;;;;;11.00;7.30;;;11.30;99.90;;;;;;5052247;28;20059;-76
2023/05/08 07:16:19;;;;;;;9.05;7.65;;;11.30;99.90;;;;;;5057297;28;20127;-77
2023/05/08 07:18:45;;;;;;;9.40;7.68;;;11.40;99.90;;;;;;5054942;28;20159;-75
2023/05/08 07:21:11;;;;;;;8.65;7.63;;;11.50;99.90;;;;;;5036644;28;20048;-75
2023/05/08 07:23:38;;;;;;;8.65;7.00;;;11.60;99.90;;;;;;5071668;28;20050;-77
2023/05/08 07:26:03;;;;;;;10.55;7.50;;;11.60;99.90;;;;;;5071963;28;20051;-77
2023/05/08 07:28:29;;;;;;;8.52;7.00;;;11.70;99.90;;;;;;5055241;28;20041;-75
2023/05/08 07:30:56;;;;;;;10.60;7.82;;;11.80;99.90;;;;;;5055535;28;20036;-77
2023/05/08 07:33:23;;;;;;;10.40;7.63;;;11.90;99.90;;;;;;5093554;28;20050;-77
2023/05/08 07:35:48;;;;;;;11.07;7.32;;;11.90;99.90;;;;;;5058102;28;20132;-77
2023/05/08 07:38:14;;;;;;;7.63;6.55;;;12.00;99.90;;;;;;5077377;28;20495;-77
2023/05/08 07:40:40;;;;;;;8.38;6.72;;;12.10;99.90;;;;;;5062341;28;20036;-77
2023/05/08 07:43:07;;;;;;;10.43;6.90;;;12.20;99.90;;;;;;5063793;28;20087;-77
2023/05/08 07:45:33;;;;;;;8.27;6.45;;;12.30;99.90;;;;;;5043032;28;20041;-77
2023/05/08 07:47:59;;;;;;;9.20;6.90;;;12.30;99.90;;;;;;5070187;28;20609;-77
2023/05/08 07:50:25;;;;;;;10.70;7.63;;;12.30;99.90;;;;;;5062421;28;20052;-77
2023/05/08 07:52:51;;;;;;;9.32;7.15;;;12.40;99.90;;;;;;5067155;28;20441;-77
2023/05/08 07:55:17;;;;;;;8.50;6.85;;;12.50;99.90;;;;;;5070531;28;20063;-77
2023/05/08 07:57:44;;;;;;;9.63;6.60;;;12.60;99.90;;;;;;5079976;28;20460;-77
2023/05/08 08:00:12;;;;;;;10.98;6.90;;;12.70;99.90;;;;;;5092982;28;20089;-77
2023/05/08 08:02:38;;;;;;;8.45;6.63;;;12.70;99.90;;;;;;5078898;28;20100;-77
2023/05/08 08:05:08;;;;;;;9.18;6.72;;;12.80;99.90;;;;;;5054584;28;20044;-77
2023/05/08 08:07:34;;;;;;;9.27;6.95;;;12.90;99.90;;;;;;5089305;28;20439;-77
2023/05/08 08:10:01;;;;;;;7.60;6.55;;;13.00;99.90;;;;;;5062571;28;20040;-77
2023/05/08 08:12:28;;;;;;;7.70;5.82;;;13.00;99.90;;;;;;5061478;28;20069;-77
2023/05/08 08:14:56;;;;;;;9.75;6.38;;;13.00;99.90;;;;;;5058737;28;20146;-77
2023/05/08 08:17:22;;;;;;;10.43;6.57;;;13.20;99.90;;;;;;5076089;28;20128;-77
2023/05/08 08:19:47;;;;;;;8.52;6.45;;;13.30;99.90;;;;;;5072146;28;20760;-77
2023/05/08 08:22:13;;;;;;;8.02;6.00;;;13.30;99.90;;;;;;5089067;28;20075;-77
2023/05/08 08:24:39;;;;;;;9.07;5.82;;;13.40;99.90;;;;;;5095911;28;20044;-77
2023/05/08 08:27:05;;;;;;;7.93;5.70;;;13.50;99.90;;;;;;5062358;28;20126;-77
2023/05/08 08:29:31;;;;;;;7.32;5.78;;;13.60;99.90;;;;;;5043547;28;20036;-77
2023/05/08 08:31:57;;;;;;;10.35;5.65;;;13.70;99.90;;;;;;5062733;28;20043;-77
2023/05/08 08:34:23;;;;;;;6.18;5.20;;;13.70;99.90;;;;;;5059713;28;20044;-77
2023/05/08 08:36:48;;;;;;;6.63;5.20;;;13.80;99.90;;;;;;5067386;28;20515;-77
2023/05/08 08:39:14;;;;;;;7.53;5.43;;;13.90;99.90;;;;;;5054984;28;20106;-77
2023/05/08 08:41:40;;;;;;;5.78;4.90;;;13.90;99.90;;;;;;5088526;28;20047;-77
2023/05/08 08:44:07;;;;;;;7.55;5.93;;;14.10;99.90;;;;;;5058848;28;20079;-77
2023/05/08 08:46:33;;;;;;;7.55;5.53;;;14.10;99.90;;;;;;5077063;28;20109;-77
2023/05/08 08:48:59;;;;;;;7.68;4.95;;;14.00;99.90;;;;;;5071631;28;20044;-77
2023/05/08 08:51:27;;;;;;;6.55;4.97;;;14.20;99.90;;;;;;5062302;28;20032;-77
2023/05/08 08:54:05;;;;;;;5.80;4.88;;;14.40;99.90;;;;;;5072058;28;20115;-77
2023/05/08 08:56:34;;;;;;;8.18;5.63;;;14.30;99.90;;;;;;5052870;28;20110;-76
2023/05/08 08:58:59;;;;;;;5.60;4.80;;;14.40;99.90;;;;;;5078326;28;20051;-76
2023/05/08 09:01:25;;;;;;;7.82;5.28;;;14.40;99.90;;;;;;5057988;28;20380;-76
2023/05/08 09:03:51;;;;;;;6.55;5.00;;;14.50;99.90;;;;;;5061155;28;20105;-77
2023/05/08 09:06:18;;;;;;;9.02;5.18;;;14.60;99.90;;;;;;5041338;28;20472;-76
2023/05/08 09:08:43;;;;;;;8.20;5.65;;;14.70;99.90;;;;;;5070036;28;20043;-76
2023/05/08 09:11:09;;;;;;;6.47;5.05;;;14.70;99.90;;;;;;5060761;28;20479;-76
2023/05/08 09:13:35;;;;;;;7.60;5.22;;;14.70;99.90;;;;;;5065666;28;20045;-76
2023/05/08 09:16:01;;;;;;;6.60;5.10;;;14.80;99.90;;;;;;5059754;28;20445;-77
2023/05/08 09:18:27;;;;;;;8.25;4.40;;;14.80;99.90;;;;;;5060457;28;20036;-76
2023/05/08 09:20:52;;;;;;;7.07;4.65;;;15.10;99.90;;;;;;5048824;28;20036;-76
2023/05/08 09:23:18;;;;;;;5.63;4.25;;;15.10;99.90;;;;;;5052920;28;20041;-76
2023/05/08 09:25:46;;;;;;;6.45;5.45;;;15.00;99.90;;;;;;5070269;28;20032;-77
2023/05/08 09:28:19;;;;;;;6.40;5.07;;;15.00;99.90;;;;;;5073694;28;20044;-77
2023/05/08 09:30:52;;;;;;;6.88;4.60;;;15.10;99.90;;;;;;5076793;28;20055;-76
2023/05/08 09:33:19;;;;;;;7.10;5.35;;;15.20;99.90;;;;;;5060623;28;20044;-76
2023/05/08 09:35:47;;;;;;;6.47;5.40;;;15.30;99.90;;;;;;5056820;28;20041;-76
2023/05/08 09:38:35;;;;;;;6.25;5.05;;;15.30;99.60;;;;;;5081162;28;20048;-76
2023/05/08 09:41:13;;;;;;;5.95;4.93;;;15.30;99.30;;;;;;5089942;28;20448;-76
2023/05/08 09:43:39;;;;;;;;;;;15.40;99.60;;;;;;5061663;28;20062;-76
2023/05/08 09:46:25;;;;;;;8.68;4.70;;;15.50;99.60;;;;;;5059994;28;19908;-77
2023/05/08 09:48:55;;;;;;;6.93;4.68;;;15.50;99.70;;;;;;5060441;28;20036;-76
2023/05/08 09:51:21;;;;;;;6.70;4.80;;;15.60;99.80;;;;;;5077309;28;20476;-77
2023/05/08 09:53:49;;;;;;;7.28;4.53;;;15.60;99.20;;;;;;5057263;28;20049;-76
2023/05/08 09:56:14;;;;;;;8.32;5.60;;;15.70;98.00;;;;;;5079306;28;20375;-77
2023/05/08 09:58:43;;;;;;;5.57;4.10;;;15.90;97.70;;;;;;5087332;28;20044;-76
2023/05/08 10:01:30;;;;;;;5.57;4.13;;;16.00;98.20;;;;;;5056059;28;20104;-76
2023/05/08 10:03:56;;;;;;;5.78;3.85;;;16.10;97.80;;;;;;5081433;28;20048;-76
2023/05/08 10:06:22;;;;;;;5.40;4.60;;;16.30;97.00;;;;;;5060254;28;20044;-76
2023/05/08 10:08:48;;;;;;;7.32;4.45;;;16.30;95.90;;;;;;5060608;28;20048;-76
2023/05/08 10:11:16;;;;;;;5.35;4.07;;;16.30;96.00;;;;;;5060855;28;20043;-76
2023/05/08 10:13:43;;;;;;;6.00;4.70;;;16.50;96.70;;;;;;5083560;28;20059;-76
2023/05/08 10:16:16;;;;;;;5.03;4.18;;;16.10;95.80;;;;;;5076322;28;20078;-76
2023/05/08 10:18:48;;;;;;;5.88;4.18;;;16.30;96.50;;;;;;5056532;28;20044;-76
2023/05/08 10:21:14;;;;;;;5.07;4.20;;;16.50;96.20;;;;;;5092964;28;20138;-76
2023/05/08 10:23:44;;;;;;;6.47;4.10;;;16.60;96.50;;;;;;5059115;28;20048;-77
2023/05/08 10:26:31;;;;;;;6.68;3.72;;;16.70;95.60;;;;;;5091813;28;20064;-77
2023/05/08 10:28:58;;;;;;;4.55;3.78;;;16.70;95.40;;;;;;5076497;28;20036;-77
2023/05/08 10:31:25;;;;;;;6.93;3.90;;;16.80;95.60;;;;;;5051844;28;20405;-77
2023/05/08 10:33:52;;;;;;;5.75;3.97;;;16.80;95.70;;;;;;5075713;28;20130;-77
2023/05/08 10:36:17;;;;;;;5.22;4.15;;;16.90;95.20;;;;;;5076716;28;20044;-77
2023/05/08 10:38:43;;;;;;;6.03;4.22;;;17.00;95.30;;;;;;5078870;28;20052;-77
2023/05/08 10:41:12;;;;;;;4.85;3.72;;;17.20;95.50;;;;;;5072988;28;20048;-77
2023/05/08 10:43:41;;;;;;;6.55;3.95;;;17.30;95.40;;;;;;5072445;28;20056;-76
2023/05/08 10:46:14;;;;;;;5.40;4.47;;;17.40;95.30;;;;;;5076550;28;20067;-77
2023/05/08 10:49:06;;;;;;;5.80;3.72;;;17.50;93.80;;;;;;5093224;28;20069;-77
2023/05/08 10:51:50;;;;;;;5.75;3.60;;;17.50;94.70;;;;;;5055296;28;20041;-76
2023/05/08 10:54:47;;;;;;;6.22;4.13;;;17.60;94.50;;;;;;5087632;28;20047;-77
2023/05/08 10:57:13;;;;;;;4.88;4.03;;;17.60;95.30;;;;;;5049596;28;20105;-76
2023/05/08 10:59:40;;;;;;;9.38;4.20;;;17.70;95.60;;;;;;5062295;28;20047;-77
2023/05/08 11:02:06;;;;;;;7.65;4.38;;;17.70;94.70;;;;;;5074722;28;20059;-77
2023/05/08 11:04:33;;;;;;;6.55;3.97;;;17.80;94.00;;;;;;5061570;28;20593;-76
2023/05/08 11:06:58;;;;;;;4.53;3.60;;;17.70;94.40;;;;;;5054345;28;20040;-77
2023/05/08 11:09:29;;;;;;;6.57;3.80;;;17.80;93.60;;;;;;5069122;28;20097;-76
2023/05/08 11:12:07;;;;;;;4.03;3.60;;;17.80;93.70;;;;;;5084806;28;20043;-77
2023/05/08 11:14:35;;;;;;;4.25;3.22;;;17.80;93.10;;;;;;5087233;28;20407;-77
2023/05/08 11:17:01;;;;;;;6.25;3.72;;;17.80;92.50;;;;;;5087079;28;20643;-77
2023/05/08 11:19:27;;;;;;;5.75;3.78;;;17.70;93.40;;;;;;5091547;28;20097;-77
2023/05/08 11:22:12;;;;;;;5.15;3.47;;;17.80;92.70;;;;;;5059912;28;20097;-76
2023/05/08 11:24:39;;;;;;;4.75;3.38;;;17.60;91.80;;;;;;5064483;28;20055;-76
2023/05/08 11:27:05;;;;;;;4.68;3.88;;;17.80;93.50;;;;;;5051977;28;20106;-77
2023/05/08 11:29:31;;;;;;;6.40;3.88;;;18.10;93.90;;;;;;5048064;28;20044;-76
2023/05/08 11:31:57;;;;;;;5.45;4.15;;;18.20;92.40;;;;;;5074403;28;20048;-77
2023/05/08 11:34:49;;;;;;;5.82;4.18;;;18.50;93.10;;;;;;5055581;28;20526;-76
2023/05/08 11:37:18;;;;;;;5.47;4.03;;;18.60;93.70;;;;;;5055339;28;20044;-77
2023/05/08 11:39:44;;;;;;;5.95;4.32;;;18.60;92.50;;;;;;5081063;28;20449;-76
2023/05/08 11:42:25;;;;;;;5.68;3.88;;;18.60;93.40;;;;;;5065083;28;20376;-78
2023/05/08 11:45:17;;;;;;;8.45;3.92;;;18.90;93.60;;;;;;5092555;28;20429;-76
2023/05/08 11:47:43;;;;;;;5.47;3.45;;;18.90;92.70;;;;;;5074751;28;20075;-77
2023/05/08 11:50:10;;;;;;;6.20;3.42;;;18.90;91.90;;;;;;5061885;28;20047;-77
2023/05/08 11:52:37;;;;;;;6.15;3.65;;;18.90;91.80;;;;;;5073104;28;20460;-76
2023/05/08 11:55:10;;;;;;;7.20;3.90;;;18.80;91.40;;;;;;5054997;28;20105;-77
2023/05/08 11:57:36;;;;;;;6.35;4.43;;;18.90;91.50;;;;;;5052678;28;20072;-76
2023/05/08 12:00:09;;;;;;;7.78;4.40;;;18.90;90.70;;;;;;5055410;28;20079;-77
2023/05/08 12:02:41;;;;;;;7.78;4.18;;;18.80;91.10;;;;;;5059261;28;20644;-77
2023/05/08 12:05:08;;;;;;;5.13;4.03;;;18.70;90.60;;;;;;5084514;28;20425;-77
2023/05/08 12:07:46;;;;;;;5.43;3.50;;;18.80;89.10;;;;;;5073291;28;20368;-77
2023/05/08 12:10:12;;;;;;;;;;;19.00;91.20;;;;;;5066898;28;20060;-77
2023/05/08 12:12:40;;;;;;;5.22;3.45;;;19.00;87.60;;;;;;5085083;28;20569;-77
2023/05/08 12:15:13;;;;;;;4.70;4.07;;;18.90;87.90;;;;;;5043442;28;20146;-76
2023/05/08 12:17:38;;;;;;;5.40;3.65;;;19.10;87.90;;;;;;5086050;28;20134;-76
2023/05/08 12:20:12;;;;;;;6.65;3.50;;;19.00;85.90;;;;;;5071543;28;20126;-77
2023/05/08 12:22:41;;;;;;;7.15;4.10;;;19.10;86.60;;;;;;5062948;28;20039;-76
2023/05/08 12:25:08;;;;;;;5.43;3.70;;;19.00;86.50;;;;;;5096299;28;20856;-77
2023/05/08 12:27:37;;;;;;;6.78;3.67;;;18.70;83.20;;;;;;5046141;28;20036;-76
2023/05/08 12:30:08;;;;;;;7.10;3.78;;;18.70;85.20;;;;;;5082701;28;20068;-77
2023/05/08 12:32:35;;;;;;;6.18;3.40;;;19.00;85.90;;;;;;5055658;28;20363;-77
2023/05/08 12:35:01;;;;;;;6.15;3.10;;;19.00;85.00;;;;;;5099240;28;20036;-76
2023/05/08 12:37:26;;;;;;;4.97;3.53;;;19.30;85.30;;;;;;5076521;28;20388;-77
2023/05/08 12:39:54;;;;;;;4.55;3.15;;;18.90;82.90;;;;;;5059261;28;20051;-77
2023/05/08 12:42:20;;;;;;;3.25;2.47;;;19.00;81.70;;;;;;5073414;28;20076;-77
2023/05/08 12:44:52;;;;;;;4.20;3.03;;;19.20;82.50;;;;;;5062427;28;20122;-77
2023/05/08 12:47:18;;;;;;;9.60;2.97;;;19.30;82.20;;;;;;5072150;28;20127;-76
2023/05/08 12:49:47;;;;;;;5.55;3.08;;;19.30;81.90;;;;;;5073497;28;20109;-76
2023/05/08 12:52:14;;;;;;;6.32;3.25;;;19.00;80.60;;;;;;5062615;28;20051;-76
2023/05/08 12:54:44;;;;;;;4.22;2.90;;;19.10;82.40;;;;;;5078992;28;20039;-77
2023/05/08 12:57:11;;;;;;;4.85;2.97;;;19.10;81.80;;;;;;5058961;28;20130;-77
2023/05/08 12:59:36;;;;;;;4.32;2.90;;;19.50;83.30;;;;;;5066503;28;20827;-76
2023/05/08 13:02:02;;;;;;;4.43;2.60;;;19.70;81.60;;;;;;5044992;28;20052;-77